Darstellungsparameter: Aktuell verwendete Einstellungen:
Skalierung der Graphiken ... ?
xyx+y,   Skalierungsfaktor:      Skalierung: Modus: x, Faktor: 1
Darstellungszeitraum ... ?
Vom - - bis: - -   Zeitraum: 16.07.2019 - 16.07.2019
Min/Max/Avg-Anzeige ... ?
Zeige MMA aktuell
Zeige MMA Monat
Zeige MMA alles
Zeige --A aktuell
Zeige --A Monat
Zeige --A alles
Keine MMA-Anzeige
MMA:
Keine MMA-Graphiken
MMA-Basis: 16.07.2019 - 16.07.2019
Quicknavigation für Darstellung... ?
Tage:      1T, 2T, 3T, 5T -1T -2T -3T -5T +1T +2T +3T +5T
Wochen: 1W, 2W, 3W -1W -2W -3W +1W +2W +3W
Monate: 1M, 3M, 6M -1M -3M -6M +1M +3M +6M
Jahre:    1J, 3J, 5J, 10J -1J -3J -5J -10J +1J +3J +5J +10J
Nutze für die Darstellung ... ?
Originaldaten oder Mittelwerte auf ...
Stundenbasis Tagesbasis Wochenbasis
Monatsbasis Jahresbasis      Datenbasis: Original-Daten
Darstellen als:
Statistik (Auto) Statistik J:M      Darstellung:
Zur Graphik,    zurück zur Übersicht aller Sensoren.
 
Tabellarische Datenbersicht: ?
 
Sensor: Nr:Datum:Temp:Feuchte:Taupunkt:
Aussen-T/F 1 16-07-2019 00:00:00 15.1 C 79 % 11.49 C
2 16-07-2019 00:05:00 15 C 80 % 11.58 C
3 16-07-2019 00:10:00 14.9 C 79 % 11.29 C
4 16-07-2019 00:15:00 14.8 C 80 % 11.39 C
5 16-07-2019 00:20:00 14.8 C 80 % 11.39 C
6 16-07-2019 00:25:00 14.7 C 80 % 11.29 C
7 16-07-2019 00:30:00 14.7 C 79 % 11.1 C
8 16-07-2019 00:35:00 14.7 C 81 % 11.48 C
9 16-07-2019 00:40:00 14.6 C 80 % 11.19 C
10 16-07-2019 00:45:00 14.6 C 80 % 11.19 C
11 16-07-2019 00:50:00 14.6 C 80 % 11.19 C
12 16-07-2019 00:55:00 14.5 C 80 % 11.09 C
13 16-07-2019 01:00:00 14.4 C 79 % 10.81 C
14 16-07-2019 01:05:00 14.3 C 79 % 10.71 C
15 16-07-2019 01:10:00 14.2 C 79 % 10.61 C
16 16-07-2019 01:15:00 14 C 79 % 10.42 C
17 16-07-2019 01:20:00 13.9 C 79 % 10.32 C
18 16-07-2019 01:25:00 13.7 C 80 % 10.32 C
19 16-07-2019 01:30:00 13.6 C 81 % 10.4 C
20 16-07-2019 01:35:00 13.4 C 81 % 10.21 C
21 16-07-2019 01:40:00 13.3 C 81 % 10.11 C
22 16-07-2019 01:45:00 13.2 C 82 % 10.2 C
23 16-07-2019 01:50:00 13.1 C 82 % 10.1 C
24 16-07-2019 01:55:00 13 C 82 % 10 C
25 16-07-2019 02:00:00 12.9 C 83 % 10.09 C
Sensor: Nr:Datum:Temp:Feuchte:Taupunkt:
Aussen-T/F 26 16-07-2019 02:05:00 12.8 C 83 % 9.99 C
27 16-07-2019 02:10:00 12.7 C 84 % 10.07 C
28 16-07-2019 02:15:00 12.6 C 84 % 9.97 C
29 16-07-2019 02:20:00 12.5 C 85 % 10.05 C
30 16-07-2019 02:25:00 12.4 C 85 % 9.95 C
31 16-07-2019 02:30:00 12.2 C 86 % 9.93 C
32 16-07-2019 02:35:00 12.1 C 86 % 9.83 C
33 16-07-2019 02:40:00 11.9 C 87 % 9.81 C
34 16-07-2019 02:45:00 11.7 C 87 % 9.61 C
35 16-07-2019 02:50:00 11.6 C 88 % 9.68 C
36 16-07-2019 02:55:00 11.4 C 88 % 9.49 C
37 16-07-2019 03:00:00 11.3 C 88 % 9.39 C
38 16-07-2019 03:05:00 11.2 C 89 % 9.46 C
39 16-07-2019 03:10:00 11.2 C 90 % 9.62 C
40 16-07-2019 03:15:00 11.1 C 90 % 9.52 C
41 16-07-2019 03:20:00 10.9 C 90 % 9.33 C
42 16-07-2019 03:25:00 10.9 C 90 % 9.33 C
43 16-07-2019 03:30:00 10.8 C 91 % 9.39 C
44 16-07-2019 03:35:00 10.8 C 91 % 9.39 C
45 16-07-2019 03:40:00 10.7 C 91 % 9.29 C
46 16-07-2019 03:45:00 10.7 C 91 % 9.29 C
47 16-07-2019 03:50:00 10.6 C 91 % 9.19 C
48 16-07-2019 03:55:00 10.6 C 91 % 9.19 C
49 16-07-2019 04:00:00 10.6 C 92 % 9.36 C
50 16-07-2019 04:05:00 10.5 C 92 % 9.26 C
Sensor: Nr:Datum:Temp:Feuchte:Taupunkt:
Aussen-T/F 51 16-07-2019 04:10:00 10.5 C 92 % 9.26 C
52 16-07-2019 04:15:00 10.4 C 92 % 9.16 C
53 16-07-2019 04:20:00 10.3 C 92 % 9.06 C
54 16-07-2019 04:25:00 10.3 C 92 % 9.06 C
55 16-07-2019 04:30:00 10.2 C 92 % 8.96 C
56 16-07-2019 04:35:00 10.2 C 92 % 8.96 C
57 16-07-2019 04:40:00 10.1 C 92 % 8.86 C
58 16-07-2019 04:45:00 10.1 C 93 % 9.02 C
59 16-07-2019 04:50:00 10.1 C 93 % 9.02 C
60 16-07-2019 04:55:00 10.1 C 93 % 9.02 C
61 16-07-2019 05:00:00 10.1 C 93 % 9.02 C
62 16-07-2019 05:05:00 10.2 C 93 % 9.12 C
63 16-07-2019 05:10:00 10.1 C 93 % 9.02 C
64 16-07-2019 05:15:00 10.1 C 93 % 9.02 C
65 16-07-2019 05:20:00 10.1 C 93 % 9.02 C
66 16-07-2019 05:25:00 10 C 93 % 8.92 C
67 16-07-2019 05:30:00 10 C 93 % 8.92 C
68 16-07-2019 05:35:00 9.9 C 93 % 8.82 C
69 16-07-2019 05:40:00 9.9 C 93 % 8.82 C
70 16-07-2019 05:45:00 9.8 C 93 % 8.72 C
71 16-07-2019 05:50:00 9.8 C 94 % 8.88 C
72 16-07-2019 05:55:00 9.8 C 94 % 8.88 C
73 16-07-2019 06:00:00 9.9 C 94 % 8.98 C
74 16-07-2019 06:05:00 9.9 C 94 % 8.98 C
75 16-07-2019 06:10:00 9.9 C 94 % 8.98 C
Sensor: Nr:Datum:Temp:Feuchte:Taupunkt:
Aussen-T/F 76 16-07-2019 06:15:00 9.9 C 94 % 8.98 C
77 16-07-2019 06:20:00 9.9 C 94 % 8.98 C
78 16-07-2019 06:25:00 10 C 94 % 9.08 C
79 16-07-2019 06:30:00 10.1 C 94 % 9.18 C
80 16-07-2019 06:35:00 10.1 C 95 % 9.34 C
81 16-07-2019 06:40:00 10.3 C 95 % 9.54 C
82 16-07-2019 06:45:00 10.4 C 95 % 9.63 C
83 16-07-2019 06:50:00 10.5 C 95 % 9.73 C
84 16-07-2019 06:55:00 10.6 C 95 % 9.83 C
85 16-07-2019 07:00:00 10.6 C 94 % 9.68 C
86 16-07-2019 07:05:00 10.7 C 94 % 9.77 C
87 16-07-2019 07:10:00 10.7 C 94 % 9.77 C
88 16-07-2019 07:15:00 10.8 C 94 % 9.87 C
89 16-07-2019 07:20:00 10.8 C 94 % 9.87 C
90 16-07-2019 07:25:00 10.9 C 94 % 9.97 C
91 16-07-2019 07:30:00 11 C 94 % 10.07 C
92 16-07-2019 07:35:00 11.2 C 94 % 10.27 C
93 16-07-2019 07:40:00 11.2 C 94 % 10.27 C
94 16-07-2019 07:45:00 11.3 C 93 % 10.21 C
95 16-07-2019 07:50:00 11.4 C 93 % 10.31 C
96 16-07-2019 07:55:00 11.6 C 93 % 10.51 C
97 16-07-2019 08:00:00 11.7 C 93 % 10.61 C
98 16-07-2019 08:05:00 11.8 C 93 % 10.71 C
99 16-07-2019 08:10:00 11.9 C 92 % 10.64 C
100 16-07-2019 08:15:00 12.1 C 92 % 10.84 C
Sensor: Nr:Datum:Temp:Feuchte:Taupunkt:
Aussen-T/F 101 16-07-2019 08:20:00 12.3 C 92 % 11.04 C
102 16-07-2019 08:25:00 12.4 C 91 % 10.97 C
103 16-07-2019 08:30:00 12.7 C 91 % 11.27 C
104 16-07-2019 08:35:00 12.8 C 90 % 11.2 C
105 16-07-2019 08:40:00 13.1 C 90 % 11.5 C
106 16-07-2019 08:45:00 13.3 C 89 % 11.53 C
107 16-07-2019 08:50:00 13.6 C 88 % 11.65 C
108 16-07-2019 08:55:00 13.8 C 88 % 11.85 C
109 16-07-2019 09:00:00 13.9 C 87 % 11.77 C
110 16-07-2019 09:05:00 14 C 86 % 11.7 C
111 16-07-2019 09:10:00 14.2 C 86 % 11.89 C
112 16-07-2019 09:15:00 14.3 C 86 % 11.99 C
113 16-07-2019 09:20:00 14.5 C 86 % 12.19 C
114 16-07-2019 09:25:00 14.7 C 84 % 12.03 C
115 16-07-2019 09:30:00 14.8 C 84 % 12.12 C
116 16-07-2019 09:35:00 14.8 C 83 % 11.94 C
117 16-07-2019 09:40:00 14.9 C 83 % 12.04 C
118 16-07-2019 09:45:00 14.9 C 83 % 12.04 C
119 16-07-2019 09:50:00 15 C 81 % 11.77 C
120 16-07-2019 09:55:00 15 C 81 % 11.77 C
121 16-07-2019 10:00:00 15.1 C 80 % 11.68 C
122 16-07-2019 10:05:00 15.3 C 80 % 11.87 C
123 16-07-2019 10:10:00 15.4 C 78 % 11.59 C
124 16-07-2019 10:15:00 15.4 C 78 % 11.59 C
125 16-07-2019 10:20:00 15.4 C 78 % 11.59 C
Sensor: Nr:Datum:Temp:Feuchte:Taupunkt:
Aussen-T/F 126 16-07-2019 10:25:00 15.5 C 77 % 11.49 C
127 16-07-2019 10:30:00 15.5 C 76 % 11.29 C
128 16-07-2019 10:35:00 15.6 C 77 % 11.59 C
129 16-07-2019 10:40:00 15.7 C 77 % 11.68 C
130 16-07-2019 10:45:00 15.7 C 77 % 11.68 C
131 16-07-2019 10:50:00 15.8 C 76 % 11.58 C
132 16-07-2019 10:55:00 15.8 C 76 % 11.58 C
133 16-07-2019 11:00:00 15.9 C 75 % 11.48 C
134 16-07-2019 11:05:00 15.9 C 75 % 11.48 C
135 16-07-2019 11:10:00 16 C 75 % 11.57 C
136 16-07-2019 11:15:00 16 C 75 % 11.57 C
137 16-07-2019 11:20:00 16.1 C 75 % 11.67 C
138 16-07-2019 11:25:00 16.1 C 75 % 11.67 C
139 16-07-2019 11:30:00 15.9 C 75 % 11.48 C
140 16-07-2019 11:35:00 15.8 C 75 % 11.38 C
141 16-07-2019 11:40:00 15.9 C 75 % 11.48 C
142 16-07-2019 11:45:00 16 C 74 % 11.37 C
143 16-07-2019 11:50:00 16.1 C 73 % 11.26 C
144 16-07-2019 11:55:00 16.2 C 74 % 11.56 C
145 16-07-2019 12:00:00 16.3 C 73 % 11.46 C
146 16-07-2019 12:05:00 16.3 C 73 % 11.46 C
147 16-07-2019 12:10:00 16.4 C 73 % 11.55 C
148 16-07-2019 12:15:00 16.5 C 73 % 11.65 C
149 16-07-2019 12:20:00 16.6 C 73 % 11.74 C
150 16-07-2019 12:25:00 16.7 C 72 % 11.63 C
Sensor: Nr:Datum:Temp:Feuchte:Taupunkt:
Aussen-T/F 151 16-07-2019 12:30:00 16.8 C 71 % 11.52 C
152 16-07-2019 12:35:00 16.9 C 71 % 11.61 C
153 16-07-2019 12:40:00 17 C 71 % 11.71 C
154 16-07-2019 12:45:00 17 C 71 % 11.71 C
155 16-07-2019 12:50:00 17.1 C 71 % 11.8 C
156 16-07-2019 12:55:00 17.1 C 70 % 11.59 C
157 16-07-2019 13:00:00 17.2 C 70 % 11.68 C
158 16-07-2019 13:05:00 17.2 C 71 % 11.9 C
159 16-07-2019 13:10:00 17.3 C 70 % 11.78 C
160 16-07-2019 13:15:00 17.3 C 70 % 11.78 C
161 16-07-2019 13:20:00 17.3 C 69 % 11.56 C
162 16-07-2019 13:25:00 17.2 C 70 % 11.68 C
163 16-07-2019 13:30:00 17.3 C 71 % 12 C
164 16-07-2019 13:35:00 17.7 C 70 % 12.16 C
165 16-07-2019 13:40:00 17.7 C 68 % 11.72 C
166 16-07-2019 13:45:00 17.6 C 67 % 11.4 C
167 16-07-2019 13:50:00 17.5 C 69 % 11.75 C
168 16-07-2019 13:55:00 17.6 C 68 % 11.63 C
169 16-07-2019 14:00:00 17.6 C 70 % 12.07 C
170 16-07-2019 14:05:00 17.7 C 68 % 11.72 C
171 16-07-2019 14:10:00 17.9 C 68 % 11.91 C
172 16-07-2019 14:15:00 18 C 68 % 12.01 C
173 16-07-2019 14:20:00 18.2 C 67 % 11.98 C
174 16-07-2019 14:25:00 18.3 C 66 % 11.84 C
175 16-07-2019 14:30:00 18.4 C 65 % 11.71 C
Sensor: Nr:Datum:Temp:Feuchte:Taupunkt:
Aussen-T/F 176 16-07-2019 14:35:00 18.6 C 65 % 11.9 C
177 16-07-2019 14:40:00 18.8 C 66 % 12.32 C
178 16-07-2019 14:45:00 18.9 C 65 % 12.18 C
179 16-07-2019 14:50:00 19 C 65 % 12.28 C
180 16-07-2019 14:55:00 19.2 C 65 % 12.47 C
181 16-07-2019 15:00:00 19.3 C 64 % 12.32 C
182 16-07-2019 15:05:00 19.4 C 64 % 12.42 C
183 16-07-2019 15:10:00 19.6 C 63 % 12.37 C
184 16-07-2019 15:15:00 19.6 C 62 % 12.13 C
185 16-07-2019 15:20:00 19.7 C 62 % 12.22 C
186 16-07-2019 15:25:00 20 C 61 % 12.26 C
187 16-07-2019 15:30:00 20.4 C 62 % 12.88 C
188 16-07-2019 15:35:00 20.8 C 60 % 12.76 C
189 16-07-2019 15:40:00 21.2 C 60 % 13.13 C
190 16-07-2019 15:45:00 21.3 C 57 % 12.44 C
191 16-07-2019 15:50:00 21.2 C 59 % 12.87 C
192 16-07-2019 15:55:00 21.4 C 57 % 12.53 C
193 16-07-2019 16:00:00 21.7 C 58 % 13.08 C
194 16-07-2019 16:05:00 22.1 C 58 % 13.45 C
195 16-07-2019 16:10:00 22.2 C 55 % 12.73 C
196 16-07-2019 16:15:00 22.3 C 55 % 12.83 C
197 16-07-2019 16:20:00 22.5 C 55 % 13.01 C
198 16-07-2019 16:25:00 22.7 C 54 % 12.92 C
199 16-07-2019 16:30:00 22.7 C 53 % 12.63 C
200 16-07-2019 16:35:00 22.6 C 52 % 12.25 C
Sensor: Nr:Datum:Temp:Feuchte:Taupunkt:
Aussen-T/F 201 16-07-2019 16:40:00 22.3 C 54 % 12.55 C
202 16-07-2019 16:45:00 22.1 C 55 % 12.64 C
203 16-07-2019 16:50:00 22.2 C 55 % 12.73 C
204 16-07-2019 16:55:00 22.4 C 54 % 12.64 C
205 16-07-2019 17:00:00 22.5 C 54 % 12.73 C
206 16-07-2019 17:05:00 22.7 C 53 % 12.63 C
207 16-07-2019 17:10:00 22.8 C 52 % 12.43 C
208 16-07-2019 17:15:00 22.7 C 53 % 12.63 C
209 16-07-2019 17:20:00 22.6 C 53 % 12.54 C
210 16-07-2019 17:25:00 22.7 C 54 % 12.92 C
211 16-07-2019 17:30:00 22.9 C 54 % 13.1 C
212 16-07-2019 17:35:00 23 C 53 % 12.91 C
213 16-07-2019 17:40:00 23 C 53 % 12.91 C
214 16-07-2019 17:45:00 22.9 C 53 % 12.82 C
215 16-07-2019 17:50:00 22.9 C 52 % 12.53 C
216 16-07-2019 17:55:00 22.9 C 53 % 12.82 C
217 16-07-2019 18:00:00 22.8 C 53 % 12.73 C
218 16-07-2019 18:05:00 22.8 C 53 % 12.73 C
219 16-07-2019 18:10:00 22.8 C 52 % 12.43 C
220 16-07-2019 18:15:00 22.9 C 53 % 12.82 C
221 16-07-2019 18:20:00 23.2 C 52 % 12.8 C
222 16-07-2019 18:25:00 23.3 C 51 % 12.6 C
223 16-07-2019 18:30:00 23.4 C 50 % 12.39 C
224 16-07-2019 18:35:00 23.3 C 51 % 12.6 C
225 16-07-2019 18:40:00 23.2 C 52 % 12.8 C
Sensor: Nr:Datum:Temp:Feuchte:Taupunkt:
Aussen-T/F 226 16-07-2019 18:45:00 23.2 C 52 % 12.8 C
227 16-07-2019 18:50:00 23.1 C 52 % 12.71 C
228 16-07-2019 18:55:00 22.9 C 53 % 12.82 C
229 16-07-2019 19:00:00 23 C 52 % 12.62 C
230 16-07-2019 19:05:00 23 C 53 % 12.91 C
231 16-07-2019 19:10:00 22.9 C 52 % 12.53 C
232 16-07-2019 19:15:00 22.8 C 52 % 12.43 C
233 16-07-2019 19:20:00 22.4 C 53 % 12.36 C
234 16-07-2019 19:25:00 22.1 C 54 % 12.36 C
235 16-07-2019 19:30:00 21.9 C 55 % 12.46 C
236 16-07-2019 19:35:00 21.7 C 55 % 12.27 C
237 16-07-2019 19:40:00 21.5 C 55 % 12.08 C
238 16-07-2019 19:45:00 21.4 C 56 % 12.27 C
239 16-07-2019 19:50:00 21.4 C 56 % 12.27 C
240 16-07-2019 19:55:00 21.4 C 57 % 12.53 C
241 16-07-2019 20:00:00 21.4 C 56 % 12.27 C
242 16-07-2019 20:05:00 21.4 C 57 % 12.53 C
243 16-07-2019 20:10:00 21.3 C 56 % 12.17 C
244 16-07-2019 20:15:00 21.3 C 57 % 12.44 C
245 16-07-2019 20:20:00 21.1 C 57 % 12.25 C
246 16-07-2019 20:25:00 21 C 58 % 12.43 C
247 16-07-2019 20:30:00 20.8 C 58 % 12.24 C
248 16-07-2019 20:35:00 20.6 C 59 % 12.31 C
249 16-07-2019 20:40:00 20.4 C 59 % 12.12 C
250 16-07-2019 20:45:00 20.3 C 60 % 12.29 C
Sensor: Nr:Datum:Temp:Feuchte:Taupunkt:
Aussen-T/F 251 16-07-2019 20:50:00 20.2 C 61 % 12.44 C
252 16-07-2019 20:55:00 20 C 62 % 12.5 C
253 16-07-2019 21:00:00 19.9 C 64 % 12.89 C
254 16-07-2019 21:05:00 19.7 C 65 % 12.94 C
255 16-07-2019 21:10:00 19.6 C 66 % 13.08 C
256 16-07-2019 21:15:00 19.2 C 67 % 12.93 C
257 16-07-2019 21:20:00 18.8 C 69 % 13 C
258 16-07-2019 21:25:00 18.4 C 70 % 12.83 C
259 16-07-2019 21:30:00 18.1 C 71 % 12.76 C
260 16-07-2019 21:35:00 17.8 C 72 % 12.69 C
261 16-07-2019 21:40:00 17.4 C 73 % 12.51 C
262 16-07-2019 21:45:00 17.2 C 74 % 12.53 C
263 16-07-2019 21:50:00 16.9 C 75 % 12.44 C
264 16-07-2019 21:55:00 16.7 C 76 % 12.45 C
265 16-07-2019 22:00:00 16.5 C 76 % 12.26 C
266 16-07-2019 22:05:00 16.3 C 77 % 12.26 C
267 16-07-2019 22:10:00 16.2 C 78 % 12.36 C
268 16-07-2019 22:15:00 16.1 C 78 % 12.27 C
269 16-07-2019 22:20:00 15.9 C 78 % 12.07 C
270 16-07-2019 22:25:00 15.8 C 79 % 12.17 C
271 16-07-2019 22:30:00 15.7 C 79 % 12.07 C
272 16-07-2019 22:35:00 15.7 C 80 % 12.26 C
273 16-07-2019 22:40:00 15.6 C 80 % 12.16 C
274 16-07-2019 22:45:00 15.6 C 80 % 12.16 C
275 16-07-2019 22:50:00 15.4 C 81 % 12.16 C
Sensor: Nr:Datum:Temp:Feuchte:Taupunkt:
Aussen-T/F 276 16-07-2019 22:55:00 15.4 C 80 % 11.97 C
277 16-07-2019 23:00:00 15.4 C 81 % 12.16 C
278 16-07-2019 23:05:00 15.4 C 81 % 12.16 C
279 16-07-2019 23:10:00 15.3 C 81 % 12.06 C
280 16-07-2019 23:15:00 15.3 C 81 % 12.06 C
281 16-07-2019 23:20:00 15.2 C 81 % 11.96 C
282 16-07-2019 23:25:00 15.1 C 81 % 11.87 C
283 16-07-2019 23:30:00 15.1 C 82 % 12.05 C
284 16-07-2019 23:35:00 15 C 82 % 11.95 C
285 16-07-2019 23:40:00 14.9 C 82 % 11.86 C
286 16-07-2019 23:45:00 14.8 C 83 % 11.94 C
287 16-07-2019 23:50:00 14.8 C 83 % 11.94 C
288 16-07-2019 23:55:00 14.7 C 83 % 11.85 C

Legende:
   Min
   Max


Maximal/Minimal-Werte vom 16.07.2019 - 16.07.2019

Sensor Min Max Avg
Temp
(Aussen-T/F)
9.8 °C
16-07-2019  05:45:00
23.4 °C
16-07-2019  18:30:00
16.04 °C
Feuchte
(Aussen-T/F)
50 %
16-07-2019  18:30:00
95 %
16-07-2019  06:35:00
75.35 %
Taupunkt
(Aussen-T/F)
8.72 C
16-07-2019  05:45:00
13.45 C
16-07-2019  16:05:00
11.3 C

Die Daten stammen von einer Davis Vantage Pro 2 Wetter-Station und werden unter Linux mit der Software wview2wettercgi und aufbereitet. Alle Angaben erfolgen ohne Gewähr für ihre Vollständigkeit oder Richtigkeit.
Kontakt: Rainer Krienke krienke@uni-koblenz.de . Meine Webseiten an der Uni Koblenz oder privat.
Version: $Revision: 0.78 $